Time;durP1;ratioP1;P1;durP2;ratioP2;P2;SDS_P1;SDS_P2;PMS_P1;PMS_P2;Temp;Humidity;BMP_temperature;BMP_pressure;BME280_temperature;BME280_humidity;BME280_pressure;Samples;Min_cycle;Max_cycle;Signal;HPM_P1;HPM_P2
2022/10/12 00:00:38;;;;;;;39.83;18.80;;;12.60;99.90;;;;;;4179351;28;20027;-62
2022/10/12 00:02:40;;;;;;;38.50;21.37;;;12.50;99.90;;;;;;4180142;28;20025;-61
2022/10/12 00:04:41;;;;;;;32.87;19.93;;;12.50;99.90;;;;;;4179127;28;20049;-62
2022/10/12 00:06:42;;;;;;;35.50;20.20;;;12.40;99.90;;;;;;4179772;28;20037;-62
2022/10/12 00:08:44;;;;;;;32.57;19.90;;;12.40;99.90;;;;;;4178506;28;20033;-62
2022/10/12 00:10:45;;;;;;;38.80;21.77;;;12.40;99.90;;;;;;4180399;28;20362;-62
2022/10/12 00:12:46;;;;;;;34.73;21.23;;;12.40;99.90;;;;;;4178736;28;20102;-62
2022/10/12 00:14:47;;;;;;;40.87;21.13;;;12.30;99.90;;;;;;4180290;28;20091;-62
2022/10/12 00:16:48;;;;;;;30.30;19.70;;;12.30;99.90;;;;;;4178952;28;20065;-62
2022/10/12 00:18:54;;;;;;;34.97;20.67;;;12.30;99.90;;;;;;4180812;28;20033;-62
2022/10/12 00:21:07;;;;;;;38.33;19.10;;;12.40;99.90;;;;;;4178167;28;20037;-61
2022/10/12 00:23:09;;;;;;;37.60;20.53;;;12.40;99.90;;;;;;4178355;28;20512;-62
2022/10/12 00:25:10;;;;;;;36.47;20.57;;;12.40;99.90;;;;;;4178028;28;20028;-61
2022/10/12 00:27:11;;;;;;;30.93;18.47;;;12.50;99.90;;;;;;4180052;28;20083;-61
2022/10/12 00:29:12;;;;;;;36.13;20.47;;;12.50;99.90;;;;;;4178275;28;20013;-61
2022/10/12 00:31:19;;;;;;;32.67;20.10;;;12.50;99.90;;;;;;4178936;28;20083;-62
2022/10/12 00:33:21;;;;;;;36.97;21.23;;;12.50;99.90;;;;;;4178093;28;20041;-61
2022/10/12 00:35:22;;;;;;;37.43;20.57;;;12.50;99.90;;;;;;4178818;28;20067;-61
2022/10/12 00:37:23;;;;;;;32.93;20.20;;;12.50;99.90;;;;;;4178227;28;20402;-62
2022/10/12 00:39:24;;;;;;;35.83;22.13;;;12.50;99.90;;;;;;4178600;28;20090;-62
2022/10/12 00:41:29;;;;;;;40.53;21.87;;;12.50;99.90;;;;;;4179505;28;20033;-61
2022/10/12 00:43:34;;;;;;;35.27;21.83;;;12.50;99.90;;;;;;4178425;28;20017;-62
2022/10/12 00:45:36;;;;;;;35.30;21.10;;;12.50;99.90;;;;;;4179624;28;20021;-61
2022/10/12 00:47:42;;;;;;;39.23;21.50;;;12.60;99.90;;;;;;4178978;28;20029;-61
2022/10/12 00:49:51;;;;;;;37.47;22.33;;;12.50;99.90;;;;;;4178846;28;20081;-61
2022/10/12 00:52:05;;;;;;;42.37;21.90;;;12.50;99.90;;;;;;4178380;28;20087;-61
2022/10/12 00:54:12;;;;;;;41.07;23.03;;;12.50;99.90;;;;;;4179456;28;20029;-61
2022/10/12 00:56:21;;;;;;;39.40;21.27;;;12.40;99.90;;;;;;4177710;28;20025;-60
2022/10/12 00:58:22;;;;;;;46.57;23.63;;;12.40;99.90;;;;;;4179347;28;20542;-63
2022/10/12 01:00:24;;;;;;;39.60;23.73;;;12.30;99.90;;;;;;4178192;28;20420;-61
2022/10/12 01:02:27;;;;;;;42.47;23.20;;;12.20;99.90;;;;;;4178710;28;20041;-62
2022/10/12 01:04:30;;;;;;;45.13;23.17;;;12.10;99.90;;;;;;4177872;28;20037;-62
2022/10/12 01:06:32;;;;;;;41.93;24.57;;;12.10;99.90;;;;;;4179454;28;20465;-61
2022/10/12 01:08:34;;;;;;;44.17;24.17;;;12.10;99.90;;;;;;4176992;28;20155;-61
2022/10/12 01:10:36;;;;;;;47.40;24.63;;;12.00;99.90;;;;;;4179490;28;20079;-65
2022/10/12 01:12:41;;;;;;;40.63;24.00;;;12.00;99.90;;;;;;4160488;28;20056;-61
2022/10/12 01:14:42;;;;;;;45.37;26.10;;;11.90;99.90;;;;;;4178407;28;20091;-62
2022/10/12 01:17:09;;;;;;;42.73;23.10;;;11.90;99.90;;;;;;4178361;28;20099;-61
2022/10/12 01:19:27;;;;;;;49.80;25.57;;;11.90;99.90;;;;;;4178286;28;20032;-61
2022/10/12 01:21:32;;;;;;;41.97;25.73;;;11.80;99.90;;;;;;4178063;28;20414;-62
2022/10/12 01:24:13;;;;;;;43.87;25.87;;;11.70;99.90;;;;;;4178914;28;20068;-66
2022/10/12 01:26:33;;;;;;;41.53;23.67;;;11.70;99.90;;;;;;4176918;28;20083;-62
2022/10/12 01:28:53;;;;;;;42.40;24.70;;;11.70;99.90;;;;;;4178440;28;20366;-62
2022/10/12 01:31:02;;;;;;;50.33;26.27;;;11.70;99.90;;;;;;4159920;28;20104;-62
2022/10/12 01:33:33;;;;;;;46.70;25.57;;;11.70;99.90;;;;;;4178284;28;20304;-61
2022/10/12 01:35:34;;;;;;;42.17;25.03;;;11.60;99.90;;;;;;4177066;28;20045;-63
2022/10/12 01:38:06;;;;;;;40.83;24.27;;;11.60;99.90;;;;;;4160608;28;20413;-64
2022/10/12 01:40:14;;;;;;;40.83;26.37;;;11.60;99.90;;;;;;4178166;28;20068;-62
2022/10/12 01:42:28;;;;;;;47.67;26.40;;;11.50;99.90;;;;;;4178523;28;20546;-61
2022/10/12 01:44:31;;;;;;;41.33;25.13;;;11.50;99.90;;;;;;4176841;28;20557;-61
2022/10/12 01:46:32;;;;;;;45.60;26.90;;;11.40;99.90;;;;;;4178393;28;20075;-62
2022/10/12 01:48:33;;;;;;;46.00;25.47;;;11.40;99.90;;;;;;4177595;28;20075;-63
2022/10/12 01:50:59;;;;;;;44.73;25.87;;;11.40;99.90;;;;;;4177969;28;20554;-62
2022/10/12 01:53:19;;;;;;;44.57;25.90;;;11.40;99.90;;;;;;4178184;28;20358;-62
2022/10/12 01:55:30;;;;;;;40.63;25.65;;;11.40;99.90;;;;;;4177334;28;20071;-61
2022/10/12 01:57:38;;;;;;;42.38;26.98;;;11.40;99.90;;;;;;4177769;28;20059;-64
2022/10/12 02:00:03;;;;;;;42.90;26.43;;;11.30;99.90;;;;;;4177779;28;20029;-61
2022/10/12 02:02:29;;;;;;;41.77;25.63;;;11.30;99.90;;;;;;4147598;28;20030;-61
2022/10/12 02:04:44;;;;;;;42.00;26.57;;;11.30;99.90;;;;;;4177212;28;20094;-61
2022/10/12 02:06:51;;;;;;;44.13;26.13;;;11.20;99.90;;;;;;4178466;28;20028;-63
2022/10/12 02:08:52;;;;;;;43.33;26.27;;;11.20;99.90;;;;;;4176505;28;20434;-63
2022/10/12 02:11:03;;;;;;;39.90;24.87;;;11.20;99.90;;;;;;4178209;28;20036;-61
2022/10/12 02:13:09;;;;;;;39.40;24.90;;;11.20;99.90;;;;;;4177307;28;20021;-63
2022/10/12 02:15:12;;;;;;;50.37;25.83;;;11.20;99.90;;;;;;4178064;28;20075;-62
2022/10/12 02:17:17;;;;;;;46.13;26.40;;;11.20;99.90;;;;;;4176682;28;20100;-61
2022/10/12 02:19:26;;;;;;;50.13;27.23;;;11.20;99.90;;;;;;4176808;28;20057;-61
2022/10/12 02:21:31;;;;;;;50.07;25.73;;;11.20;99.90;;;;;;4177389;28;20079;-63
2022/10/12 02:23:33;;;;;;;42.47;24.43;;;11.20;99.90;;;;;;4178368;28;20033;-61
2022/10/12 02:25:34;;;;;;;37.97;23.50;;;11.20;99.90;;;;;;4177977;28;20071;-61
2022/10/12 02:27:39;;;;;;;39.27;24.03;;;11.30;99.90;;;;;;4177011;28;20029;-63
2022/10/12 02:29:44;;;;;;;40.93;23.20;;;11.30;99.90;;;;;;4170780;28;20420;-61
2022/10/12 02:31:54;;;;;;;42.93;25.17;;;11.40;99.90;;;;;;4175187;28;20098;-63
2022/10/12 02:34:15;;;;;;;36.20;22.85;;;11.30;99.90;;;;;;4177963;28;20479;-64
2022/10/12 02:36:33;;;;;;;39.00;24.57;;;11.40;99.90;;;;;;4160105;28;20037;-61
2022/10/12 02:38:40;;;;;;;41.77;23.93;;;11.40;99.90;;;;;;4160342;28;20513;-62
2022/10/12 02:41:11;;;;;;;41.10;25.90;;;11.30;99.90;;;;;;4159803;28;20049;-64
2022/10/12 02:43:23;;;;;;;42.43;25.70;;;11.30;99.90;;;;;;4155149;28;20045;-63
2022/10/12 02:45:25;;;;;;;41.87;24.80;;;11.30;99.90;;;;;;4161303;28;20017;-62
2022/10/12 02:47:31;;;;;;;42.77;25.23;;;11.30;99.90;;;;;;4171319;28;20578;-61
2022/10/12 02:49:34;;;;;;;43.57;24.97;;;11.20;99.90;;;;;;4176599;28;20045;-66
2022/10/12 02:51:38;;;;;;;39.53;23.80;;;11.20;99.90;;;;;;4177584;28;20083;-61
2022/10/12 02:53:39;;;;;;;42.30;24.90;;;11.20;99.90;;;;;;4177720;28;20025;-61
2022/10/12 02:55:52;;;;;;;44.57;24.20;;;11.20;99.90;;;;;;4159029;28;20042;-64
2022/10/12 02:57:54;;;;;;;41.57;25.33;;;11.20;99.90;;;;;;4178738;28;20052;-65
2022/10/12 02:59:55;;;;;;;41.63;25.97;;;11.10;99.90;;;;;;4180080;28;20464;-61
2022/10/12 03:01:56;;;;;;;39.10;25.10;;;11.10;99.90;;;;;;4179318;28;20489;-61
2022/10/12 03:03:57;;;;;;;41.97;24.63;;;11.10;99.90;;;;;;4180305;28;20045;-60
2022/10/12 03:05:58;;;;;;;38.33;25.77;;;11.10;99.90;;;;;;4179721;28;20025;-62
2022/10/12 03:07:59;;;;;;;44.80;25.63;;;11.10;99.90;;;;;;4180327;28;20041;-60
2022/10/12 03:10:00;;;;;;;41.57;25.83;;;11.00;99.90;;;;;;4180103;28;20071;-62
2022/10/12 03:12:01;;;;;;;43.50;26.17;;;11.00;99.90;;;;;;4180582;28;20041;-62
2022/10/12 03:14:04;;;;;;;45.57;28.50;;;11.00;99.90;;;;;;4180094;28;20510;-61
2022/10/12 03:16:07;;;;;;;47.37;27.70;;;11.00;99.90;;;;;;4180816;28;20025;-61
2022/10/12 03:18:08;;;;;;;44.03;27.03;;;11.00;99.90;;;;;;4179849;28;20045;-64
2022/10/12 03:20:10;;;;;;;47.13;26.00;;;11.00;99.90;;;;;;4180830;28;20029;-63
2022/10/12 03:22:11;;;;;;;47.23;27.30;;;11.00;99.90;;;;;;4179507;28;20522;-60
2022/10/12 03:24:12;;;;;;;49.73;26.43;;;10.90;99.90;;;;;;4180129;28;20037;-62
2022/10/12 03:26:13;;;;;;;45.27;25.53;;;10.90;99.90;;;;;;4179746;28;20083;-62
2022/10/12 03:28:14;;;;;;;43.67;25.97;;;10.80;99.90;;;;;;4179776;28;20037;-62
2022/10/12 03:30:15;;;;;;;46.20;26.20;;;10.80;99.90;;;;;;4179900;28;20041;-62
2022/10/12 03:32:17;;;;;;;47.10;26.60;;;10.80;99.90;;;;;;4178837;28;20083;-62
2022/10/12 03:34:18;;;;;;;37.53;25.73;;;10.70;99.90;;;;;;4179170;28;20091;-61
2022/10/12 03:36:19;;;;;;;47.33;25.70;;;10.70;99.90;;;;;;4179663;28;20098;-64
2022/10/12 03:38:20;;;;;;;39.20;25.47;;;10.70;99.90;;;;;;4180052;28;20090;-61
2022/10/12 03:40:21;;;;;;;45.80;25.47;;;10.60;99.90;;;;;;4178668;28;20040;-62
2022/10/12 03:42:22;;;;;;;44.30;25.60;;;10.60;99.90;;;;;;4180384;28;20037;-63
2022/10/12 03:44:24;;;;;;;41.13;25.20;;;10.60;99.90;;;;;;4179474;28;20460;-61
2022/10/12 03:46:25;;;;;;;44.73;26.87;;;10.50;99.90;;;;;;4178723;28;20119;-61
2022/10/12 03:48:26;;;;;;;54.90;28.50;;;10.50;99.90;;;;;;4180341;28;20074;-62
2022/10/12 03:50:27;;;;;;;43.03;25.77;;;10.50;99.90;;;;;;4180204;28;20030;-61
2022/10/12 03:52:28;;;;;;;45.13;25.60;;;10.50;99.90;;;;;;4179381;28;20075;-62
2022/10/12 03:54:29;;;;;;;44.63;26.17;;;10.50;99.90;;;;;;4180265;28;20519;-61
2022/10/12 03:56:31;;;;;;;41.63;25.13;;;10.50;99.90;;;;;;4179302;28;20025;-63
2022/10/12 03:58:32;;;;;;;46.13;27.33;;;10.50;99.90;;;;;;4178078;28;20053;-62
2022/10/12 04:00:33;;;;;;;47.87;26.90;;;10.50;99.90;;;;;;4179219;28;20033;-62
2022/10/12 04:02:34;;;;;;;50.40;28.03;;;10.50;99.90;;;;;;4178976;28;20087;-64
2022/10/12 04:04:35;;;;;;;41.63;24.73;;;10.50;99.90;;;;;;4179679;28;20076;-63
2022/10/12 04:06:36;;;;;;;49.43;26.17;;;10.50;99.90;;;;;;4177766;28;20653;-67
2022/10/12 04:08:38;;;;;;;44.67;26.70;;;10.50;99.90;;;;;;4172627;28;20030;-64
2022/10/12 04:10:39;;;;;;;48.23;25.97;;;10.50;99.90;;;;;;4177631;28;20095;-61
2022/10/12 04:12:40;;;;;;;37.20;24.60;;;10.50;99.90;;;;;;4179921;28;20090;-63
2022/10/12 04:14:41;;;;;;;36.87;23.10;;;10.50;99.90;;;;;;4174813;28;20784;-63
2022/10/12 04:16:42;;;;;;;44.33;24.67;;;10.50;99.90;;;;;;4177239;28;20094;-61
2022/10/12 04:18:43;;;;;;;41.67;23.80;;;10.50;99.90;;;;;;4176735;28;20040;-63
2022/10/12 04:20:47;;;;;;;46.47;23.97;;;10.50;99.90;;;;;;4175498;28;20103;-62
2022/10/12 04:22:48;;;;;;;40.70;23.87;;;10.60;99.90;;;;;;4173264;28;20041;-62
2022/10/12 04:24:49;;;;;;;42.00;24.07;;;10.60;99.90;;;;;;4173672;28;20082;-64
2022/10/12 04:26:50;;;;;;;39.47;23.40;;;10.60;99.90;;;;;;4174005;28;20049;-64
2022/10/12 04:28:52;;;;;;;42.73;23.97;;;10.70;99.90;;;;;;4175188;28;20051;-66
2022/10/12 04:30:53;;;;;;;42.30;26.57;;;10.70;99.90;;;;;;4174805;28;20481;-63
2022/10/12 04:32:54;;;;;;;37.53;23.57;;;10.70;99.90;;;;;;4173679;28;20049;-63
2022/10/12 04:34:55;;;;;;;41.40;24.97;;;10.70;99.90;;;;;;4176553;28;20029;-63
2022/10/12 04:36:56;;;;;;;40.53;24.00;;;10.80;99.90;;;;;;4177514;28;20131;-63
2022/10/12 04:38:57;;;;;;;42.43;23.43;;;10.80;99.90;;;;;;4182932;28;20115;-63
2022/10/12 04:40:59;;;;;;;35.27;22.60;;;10.90;99.90;;;;;;4177016;28;20036;-65
2022/10/12 04:43:00;;;;;;;41.37;23.40;;;10.90;99.90;;;;;;4177836;28;20036;-64
2022/10/12 04:45:01;;;;;;;38.90;26.30;;;10.90;99.90;;;;;;4177064;28;20492;-63
2022/10/12 04:47:02;;;;;;;51.23;27.50;;;10.80;99.90;;;;;;4179642;28;20037;-63
2022/10/12 04:49:03;;;;;;;50.87;26.83;;;10.80;99.90;;;;;;4178099;28;20032;-62
2022/10/12 04:51:05;;;;;;;52.37;26.47;;;10.70;99.90;;;;;;4179014;28;20102;-65
2022/10/12 04:53:06;;;;;;;47.27;27.60;;;10.70;99.90;;;;;;4176826;28;20826;-63
2022/10/12 04:55:07;;;;;;;48.07;27.37;;;10.70;99.90;;;;;;4179123;28;20032;-63
2022/10/12 04:57:09;;;;;;;48.67;29.20;;;10.60;99.90;;;;;;4178570;28;20021;-63
2022/10/12 04:59:10;;;;;;;56.63;29.60;;;10.60;99.90;;;;;;4178782;28;20090;-63
2022/10/12 05:01:11;;;;;;;48.20;29.70;;;10.60;99.90;;;;;;4178737;28;20457;-62
2022/10/12 05:03:12;;;;;;;59.20;30.17;;;10.60;99.90;;;;;;4177179;28;20049;-63
2022/10/12 05:05:13;;;;;;;51.33;29.77;;;10.50;99.90;;;;;;4178337;28;20045;-62
2022/10/12 05:07:14;;;;;;;47.77;28.90;;;10.50;99.90;;;;;;4178429;28;20570;-61
2022/10/12 05:09:16;;;;;;;53.43;27.03;;;10.50;99.90;;;;;;4179217;28;20091;-62
2022/10/12 05:11:17;;;;;;;55.03;30.10;;;10.50;99.90;;;;;;4177492;28;20029;-62
2022/10/12 05:13:18;;;;;;;50.97;29.40;;;10.50;99.90;;;;;;4178641;28;20029;-63
2022/10/12 05:15:19;;;;;;;56.27;28.43;;;10.50;99.90;;;;;;4174765;28;20479;-62
2022/10/12 05:17:20;;;;;;;41.80;26.87;;;10.50;99.90;;;;;;4174075;28;20527;-62
2022/10/12 05:19:21;;;;;;;53.63;27.23;;;10.60;99.90;;;;;;4176150;28;20086;-62
2022/10/12 05:21:22;;;;;;;54.23;30.40;;;10.60;99.90;;;;;;4176310;28;20091;-62
2022/10/12 05:23:24;;;;;;;49.30;29.57;;;10.60;99.90;;;;;;4177496;28;20439;-62
2022/10/12 05:25:25;;;;;;;51.83;30.27;;;10.60;99.90;;;;;;4177990;28;20036;-62
2022/10/12 05:27:26;;;;;;;46.77;27.67;;;10.60;99.90;;;;;;4177398;28;20163;-62
2022/10/12 05:29:27;;;;;;;50.17;28.20;;;10.60;99.90;;;;;;4175141;28;20496;-62
2022/10/12 05:31:28;;;;;;;46.37;25.80;;;10.70;99.90;;;;;;4177301;28;20033;-62
2022/10/12 05:33:29;;;;;;;50.23;28.63;;;10.70;99.90;;;;;;4176305;28;20037;-62
2022/10/12 05:35:30;;;;;;;51.47;27.10;;;10.70;99.90;;;;;;4159656;28;20083;-63
2022/10/12 05:37:33;;;;;;;53.57;28.67;;;10.70;99.90;;;;;;4177222;28;20488;-63
2022/10/12 05:39:36;;;;;;;46.40;26.40;;;10.70;99.90;;;;;;4178962;28;20439;-63
2022/10/12 05:41:37;;;;;;;39.87;24.63;;;10.70;99.90;;;;;;4166599;28;20042;-64
2022/10/12 05:43:38;;;;;;;57.80;26.70;;;10.70;99.90;;;;;;4176083;28;20083;-63
2022/10/12 05:45:39;;;;;;;53.10;26.27;;;10.70;99.90;;;;;;4176138;28;20079;-65
2022/10/12 05:47:40;;;;;;;49.07;25.00;;;10.70;99.90;;;;;;4178635;28;20028;-63
2022/10/12 05:49:41;;;;;;;46.23;26.83;;;10.70;99.90;;;;;;4177397;28;20087;-63
2022/10/12 05:51:43;;;;;;;47.67;27.40;;;10.70;99.90;;;;;;4177151;28;20565;-64
2022/10/12 05:53:44;;;;;;;52.43;28.23;;;10.70;99.90;;;;;;4175613;28;20037;-63
2022/10/12 05:55:52;;;;;;;45.07;28.53;;;10.70;99.90;;;;;;4177739;28;20055;-63
2022/10/12 05:57:53;;;;;;;47.13;27.90;;;10.80;99.90;;;;;;4177725;28;20049;-63
2022/10/12 05:59:54;;;;;;;50.10;29.13;;;10.80;99.90;;;;;;4160189;28;20464;-64
2022/10/12 06:01:55;;;;;;;50.27;27.07;;;10.90;99.90;;;;;;4176872;28;20087;-62
2022/10/12 06:03:57;;;;;;;47.27;27.70;;;10.90;99.90;;;;;;4177507;28;20064;-63
2022/10/12 06:05:58;;;;;;;45.67;27.10;;;11.00;99.90;;;;;;4178081;28;20036;-63
2022/10/12 06:07:59;;;;;;;45.07;27.17;;;11.10;99.90;;;;;;4177693;28;20074;-63
2022/10/12 06:10:00;;;;;;;48.00;28.97;;;11.10;99.90;;;;;;4177433;28;20538;-63
2022/10/12 06:12:01;;;;;;;54.03;28.60;;;11.10;99.90;;;;;;4176235;28;20075;-62
2022/10/12 06:14:03;;;;;;;49.90;27.20;;;11.10;99.90;;;;;;4177236;28;20049;-63
2022/10/12 06:16:05;;;;;;;45.90;26.23;;;11.20;99.90;;;;;;4177251;28;20136;-63
2022/10/12 06:18:06;;;;;;;53.03;27.87;;;11.20;99.90;;;;;;4178360;28;20544;-63
2022/10/12 06:20:08;;;;;;;49.13;27.07;;;11.30;99.90;;;;;;4176480;28;20021;-65
2022/10/12 06:22:09;;;;;;;55.10;27.90;;;11.30;99.90;;;;;;4178427;28;20025;-63
2022/10/12 06:24:10;;;;;;;63.03;28.77;;;11.30;99.90;;;;;;4175992;28;20041;-63
2022/10/12 06:26:11;;;;;;;46.23;27.37;;;11.30;99.90;;;;;;4177917;28;20033;-64
2022/10/12 06:28:13;;;;;;;56.50;29.20;;;11.30;99.90;;;;;;4177254;28;20090;-64
2022/10/12 06:30:15;;;;;;;48.93;26.73;;;11.30;99.90;;;;;;4177242;28;20373;-63
2022/10/12 06:32:16;;;;;;;56.87;28.63;;;11.30;99.90;;;;;;4176283;28;20511;-63
2022/10/12 06:34:17;;;;;;;57.83;29.27;;;11.30;99.90;;;;;;4176768;28;20078;-63
2022/10/12 06:36:19;;;;;;;45.67;26.70;;;11.30;99.90;;;;;;4176755;28;20064;-62
2022/10/12 06:38:20;;;;;;;57.40;28.33;;;11.30;99.90;;;;;;4176283;28;20049;-64
2022/10/12 06:40:21;;;;;;;42.47;27.10;;;11.30;99.90;;;;;;4177561;28;20033;-64
2022/10/12 06:42:22;;;;;;;49.13;28.00;;;11.40;99.90;;;;;;4176440;28;20086;-64
2022/10/12 06:44:24;;;;;;;55.70;27.57;;;11.40;99.90;;;;;;4177485;28;20059;-64
2022/10/12 06:46:25;;;;;;;53.13;27.87;;;11.30;99.90;;;;;;4176606;28;20029;-63
2022/10/12 06:48:26;;;;;;;55.80;30.90;;;11.40;99.90;;;;;;4177814;28;20024;-62
2022/10/12 06:50:27;;;;;;;56.60;30.03;;;11.40;99.90;;;;;;4176957;28;20033;-64
2022/10/12 06:52:28;;;;;;;49.47;28.33;;;11.50;99.90;;;;;;4177420;28;20478;-62
2022/10/12 06:54:30;;;;;;;61.00;31.07;;;11.50;99.90;;;;;;4157943;28;20041;-62
2022/10/12 06:56:31;;;;;;;57.43;29.37;;;11.60;99.90;;;;;;4176681;28;20087;-62
2022/10/12 06:58:32;;;;;;;54.73;28.93;;;11.70;99.90;;;;;;4176581;28;20435;-62
2022/10/12 07:00:33;;;;;;;52.37;29.27;;;11.80;99.90;;;;;;4176007;28;20052;-64
2022/10/12 07:02:35;;;;;;;63.43;30.47;;;11.80;99.90;;;;;;4177322;28;20017;-62
2022/10/12 07:04:36;;;;;;;53.33;27.63;;;11.90;99.90;;;;;;4176704;28;20538;-68
2022/10/12 07:06:37;;;;;;;55.50;27.53;;;11.90;99.90;;;;;;4177912;28;20041;-62
2022/10/12 07:08:40;;;;;;;53.67;27.27;;;12.00;99.90;;;;;;4175414;28;20045;-63
2022/10/12 07:10:41;;;;;;;56.17;27.03;;;12.00;99.90;;;;;;4177533;28;20033;-65
2022/10/12 07:12:42;;;;;;;49.17;24.83;;;12.10;99.90;;;;;;4176057;28;20665;-63
2022/10/12 07:14:43;;;;;;;46.07;26.30;;;12.10;99.90;;;;;;4177465;28;20542;-62
2022/10/12 07:16:44;;;;;;;51.77;26.57;;;12.10;99.90;;;;;;4176186;28;20029;-62
2022/10/12 07:18:45;;;;;;;51.97;27.73;;;12.10;99.90;;;;;;4177084;28;20038;-62
2022/10/12 07:20:46;;;;;;;57.57;26.97;;;12.10;99.90;;;;;;4176652;28;20033;-63
2022/10/12 07:22:47;;;;;;;44.27;26.50;;;12.20;99.90;;;;;;4159766;28;20060;-63
2022/10/12 07:24:49;;;;;;;53.23;26.83;;;12.20;99.90;;;;;;4176360;28;20029;-62
2022/10/12 07:26:50;;;;;;;46.97;26.33;;;12.20;99.90;;;;;;4177395;28;20075;-63
2022/10/12 07:28:51;;;;;;;45.73;26.13;;;12.20;99.90;;;;;;4176273;28;20025;-62
2022/10/12 07:30:53;;;;;;;42.70;24.80;;;12.20;99.90;;;;;;4176239;28;20033;-64
2022/10/12 07:32:54;;;;;;;48.67;26.90;;;12.20;99.90;;;;;;4176591;28;20527;-62
2022/10/12 07:34:55;;;;;;;44.37;25.20;;;12.20;99.90;;;;;;4175827;28;20071;-65
2022/10/12 07:36:57;;;;;;;41.87;24.47;;;12.20;99.90;;;;;;4177408;28;20106;-65
2022/10/12 07:38:59;;;;;;;45.83;27.87;;;12.30;99.90;;;;;;4175302;28;20095;-63
2022/10/12 07:41:01;;;;;;;54.90;31.83;;;12.40;99.90;;;;;;4177514;28;20025;-63
2022/10/12 07:43:02;;;;;;;52.47;28.30;;;12.40;99.90;;;;;;4175459;28;20068;-65
2022/10/12 07:45:04;;;;;;;47.00;26.97;;;12.60;99.90;;;;;;4180236;28;20469;-65
2022/10/12 07:47:05;;;;;;;51.13;26.00;;;12.70;99.90;;;;;;4178308;28;20099;-64
2022/10/12 07:49:06;;;;;;;53.30;25.90;;;12.70;99.90;;;;;;4180105;28;20420;-62
2022/10/12 07:51:09;;;;;;;47.83;27.40;;;12.70;99.90;;;;;;4179182;28;20040;-66
2022/10/12 07:53:10;;;;;;;41.17;24.43;;;12.80;99.90;;;;;;4180124;28;20065;-64
2022/10/12 07:55:11;;;;;;;38.40;23.83;;;12.70;99.90;;;;;;4178425;28;20465;-65
2022/10/12 07:57:12;;;;;;;39.43;22.73;;;12.70;99.90;;;;;;4179792;28;20063;-63
2022/10/12 07:59:13;;;;;;;37.40;22.97;;;12.70;99.90;;;;;;4178586;28;20079;-64
2022/10/12 08:01:16;;;;;;;36.43;21.23;;;12.60;99.90;;;;;;4177976;28;20455;-66
2022/10/12 08:03:17;;;;;;;36.23;22.10;;;12.70;99.90;;;;;;4179151;28;20366;-66
2022/10/12 08:05:20;;;;;;;43.40;22.90;;;12.80;99.90;;;;;;4178920;28;20033;-66
2022/10/12 08:07:21;;;;;;;36.90;21.70;;;12.70;99.90;;;;;;4179589;28;20044;-65
2022/10/12 08:09:22;;;;;;;35.77;20.77;;;12.80;99.90;;;;;;4178138;28;20095;-63
2022/10/12 08:11:23;;;;;;;36.43;22.73;;;12.80;99.90;;;;;;4179777;28;20472;-65
2022/10/12 08:13:24;;;;;;;36.73;22.07;;;12.80;99.90;;;;;;4178821;28;20500;-64
2022/10/12 08:15:25;;;;;;;35.50;21.77;;;12.80;99.90;;;;;;4178860;28;20186;-64
2022/10/12 08:17:27;;;;;;;32.07;22.00;;;12.80;99.90;;;;;;4160282;28;20072;-64
2022/10/12 08:19:28;;;;;;;35.70;22.03;;;12.90;99.90;;;;;;4179194;28;20098;-65
2022/10/12 08:21:29;;;;;;;37.63;20.67;;;12.90;99.90;;;;;;4178470;28;20488;-64
2022/10/12 08:23:30;;;;;;;36.77;22.17;;;13.00;99.90;;;;;;4179762;28;20087;-65
2022/10/12 08:25:33;;;;;;;32.60;21.33;;;13.00;99.90;;;;;;4178448;28;20025;-64
2022/10/12 08:27:37;;;;;;;41.50;20.17;;;13.10;99.90;;;;;;4179527;28;20029;-65
2022/10/12 08:29:38;;;;;;;41.43;21.57;;;13.20;99.90;;;;;;4178717;28;20071;-63
2022/10/12 08:31:39;;;;;;;32.73;21.60;;;13.20;99.90;;;;;;4179050;28;20496;-66
2022/10/12 08:33:40;;;;;;;38.60;21.53;;;13.20;99.90;;;;;;4178741;28;20032;-64
2022/10/12 08:35:42;;;;;;;33.50;19.83;;;13.20;99.90;;;;;;4178213;28;20041;-64
2022/10/12 08:37:43;;;;;;;36.73;21.07;;;13.20;99.90;;;;;;4178858;28;20033;-63
2022/10/12 08:39:44;;;;;;;31.33;20.20;;;13.30;99.90;;;;;;4178322;28;20029;-64
2022/10/12 08:41:57;;;;;;;36.30;21.93;;;13.30;99.90;;;;;;4179747;28;20033;-65
2022/10/12 08:44:16;;;;;;;36.00;21.00;;;13.30;99.90;;;;;;4159911;28;20041;-63
2022/10/12 08:46:21;;;;;;;35.97;21.43;;;13.30;99.90;;;;;;4179247;28;20083;-63
2022/10/12 08:48:42;;;;;;;37.77;22.00;;;13.40;99.90;;;;;;4177646;28;20134;-63
2022/10/12 08:50:56;;;;;;;36.77;21.37;;;13.40;99.90;;;;;;4179049;28;20082;-64
2022/10/12 08:53:10;;;;;;;40.90;22.23;;;13.40;99.90;;;;;;4178295;28;20078;-64
2022/10/12 08:55:17;;;;;;;32.37;21.27;;;13.50;99.90;;;;;;4178031;28;21208;-63
2022/10/12 08:57:19;;;;;;;36.00;22.37;;;13.50;99.90;;;;;;4177371;28;20086;-66
2022/10/12 08:59:20;;;;;;;35.47;20.83;;;13.50;99.90;;;;;;4178998;28;20115;-64
2022/10/12 09:01:37;;;;;;;34.90;21.93;;;13.60;99.90;;;;;;4177365;28;20044;-63
2022/10/12 09:03:59;;;;;;;39.80;21.83;;;13.70;99.90;;;;;;4174448;28;20044;-62
2022/10/12 09:06:17;;;;;;;33.90;20.50;;;13.70;99.90;;;;;;4170158;28;20126;-63
2022/10/12 09:08:31;;;;;;;36.27;21.47;;;13.80;99.90;;;;;;4178211;28;20415;-63
2022/10/12 09:10:41;;;;;;;42.90;20.57;;;13.90;99.90;;;;;;4174167;28;20037;-66
2022/10/12 09:13:01;;;;;;;30.27;19.50;;;14.00;99.90;;;;;;4159569;28;20053;-65
2022/10/12 09:15:08;;;;;;;34.40;20.73;;;14.10;99.90;;;;;;4178779;28;20029;-64
2022/10/12 09:17:30;;;;;;;34.90;21.27;;;14.10;99.90;;;;;;4178182;28;20071;-63
2022/10/12 09:19:39;;;;;;;40.13;21.73;;;14.10;99.90;;;;;;4159617;28;20140;-62
2022/10/12 09:21:43;;;;;;;36.20;20.30;;;14.20;99.90;;;;;;4177879;28;20025;-63
2022/10/12 09:23:45;;;;;;;37.60;23.10;;;14.20;99.90;;;;;;4178376;28;20839;-62
2022/10/12 09:25:46;;;;;;;36.47;22.67;;;14.30;99.90;;;;;;4177927;28;20469;-64
2022/10/12 09:27:47;;;;;;;41.40;23.27;;;14.30;99.90;;;;;;4178168;28;20041;-62
2022/10/12 09:29:56;;;;;;;42.58;23.05;;;14.30;99.90;;;;;;4177580;28;20480;-63
2022/10/12 09:32:26;;;;;;;38.20;21.90;;;14.30;99.90;;;;;;4177892;28;20397;-63
2022/10/12 09:34:28;;;;;;;38.60;22.70;;;14.40;99.90;;;;;;4177578;28;20087;-65
2022/10/12 09:36:35;;;;;;;35.75;23.45;;;14.30;99.90;;;;;;4176822;28;20045;-64
2022/10/12 09:38:37;;;;;;;37.58;22.50;;;14.40;99.90;;;;;;4175321;28;20041;-64
2022/10/12 09:40:39;;;;;;;38.30;22.85;;;14.50;99.90;;;;;;4160464;28;20092;-63
2022/10/12 09:42:41;;;;;;;38.67;23.58;;;14.50;99.90;;;;;;4160936;28;20436;-63
2022/10/12 09:45:11;;;;;;;44.60;22.83;;;14.60;99.90;;;;;;4172809;28;20484;-62
2022/10/12 09:47:32;;;;;;;;;;;14.60;99.90;;;;;;4178030;28;20573;-63
2022/10/12 09:49:44;;;;;;;37.20;23.60;;;14.60;99.90;;;;;;4159215;28;20730;-66
2022/10/12 09:51:46;;;;;;;38.92;22.33;;;14.60;99.90;;;;;;4176167;28;20059;-64
2022/10/12 09:53:48;;;;;;;30.30;21.52;;;14.60;99.90;;;;;;4177068;28;20025;-65
2022/10/12 09:55:56;;;;;;;32.20;21.45;;;14.70;99.90;;;;;;4176865;28;20037;-63
2022/10/12 09:58:01;;;;;;;29.40;21.00;;;14.70;99.90;;;;;;4177172;28;20448;-62
2022/10/12 10:00:24;;;;;;;36.30;22.33;;;14.80;99.90;;;;;;4158641;28;20053;-66
2022/10/12 10:02:26;;;;;;;35.72;22.50;;;14.80;99.90;;;;;;4177452;28;20068;-63
2022/10/12 10:04:28;;;;;;;30.92;22.02;;;15.00;99.90;;;;;;4176160;28;20041;-61
2022/10/12 10:06:29;;;;;;;33.47;22.05;;;15.10;99.90;;;;;;4170771;28;20481;-62
2022/10/12 10:08:40;;;;;;;44.15;21.90;;;15.10;99.90;;;;;;4176301;28;20078;-62
2022/10/12 10:10:55;;;;;;;40.22;22.77;;;15.10;99.90;;;;;;4176342;28;20083;-63
2022/10/12 10:13:00;;;;;;;37.30;21.70;;;15.20;99.90;;;;;;4170530;28;20033;-62
2022/10/12 10:15:01;;;;;;;32.95;21.15;;;15.20;99.90;;;;;;4175514;28;20044;-62
2022/10/12 10:17:02;;;;;;;33.03;20.88;;;15.20;99.90;;;;;;4177177;28;20102;-61
2022/10/12 10:19:03;;;;;;;43.78;22.45;;;15.20;99.90;;;;;;4175883;28;20123;-62
2022/10/12 10:21:08;;;;;;;32.40;20.48;;;15.30;99.90;;;;;;4172731;28;20071;-62
2022/10/12 10:23:27;;;;;;;35.78;21.95;;;15.30;99.90;;;;;;4178045;28;20110;-62
2022/10/12 10:25:29;;;;;;;31.75;21.00;;;15.30;99.90;;;;;;4181057;28;20032;-65
2022/10/12 10:27:38;;;;;;;33.40;21.38;;;15.30;99.90;;;;;;4185185;28;20536;-61
2022/10/12 10:29:41;;;;;;;35.60;21.63;;;15.30;99.90;;;;;;4189941;28;20124;-62
2022/10/12 10:31:45;;;;;;;38.03;20.60;;;15.40;99.90;;;;;;4180935;28;20028;-62